createdAt,value
2019-03-09T00:00:11.705Z,2.90
2019-03-09T00:02:39.664Z,2.78
2019-03-09T00:05:16.253Z,2.64
2019-03-09T00:07:44.210Z,2.55
2019-03-09T00:10:12.491Z,2.44
2019-03-09T00:12:40.780Z,2.36
2019-03-09T00:15:09.169Z,2.31
2019-03-09T00:17:37.805Z,2.27
2019-03-09T00:20:05.415Z,2.26
2019-03-09T00:22:33.684Z,2.25
2019-03-09T00:25:21.406Z,2.21
2019-03-09T00:28:09.304Z,2.17
2019-03-09T00:30:56.286Z,2.15
2019-03-09T00:33:25.064Z,2.13
2019-03-09T00:35:53.522Z,2.11
2019-03-09T00:38:21.734Z,2.10
2019-03-09T00:40:50.465Z,2.10
2019-03-09T00:43:18.699Z,2.08
2019-03-09T00:45:47.440Z,2.10
2019-03-09T00:48:16.119Z,2.10
2019-03-09T00:50:44.135Z,2.07
2019-03-09T00:53:12.371Z,2.08
2019-03-09T00:55:40.611Z,2.07
2019-03-09T00:58:09.336Z,2.10
2019-03-09T01:00:37.621Z,2.17
2019-03-09T01:03:06.290Z,2.21
2019-03-09T01:05:34.824Z,2.31
2019-03-09T01:08:02.755Z,2.33
2019-03-09T01:10:31.010Z,2.37
2019-03-09T01:12:58.893Z,2.38
2019-03-09T01:15:27.178Z,2.39
2019-03-09T01:17:55.151Z,2.42
2019-03-09T01:20:23.076Z,2.41
2019-03-09T01:22:51.307Z,2.48
2019-03-09T01:25:20.030Z,2.55
2019-03-09T01:27:48.797Z,2.74
2019-03-09T01:30:17.585Z,3.04
2019-03-09T01:32:45.874Z,3.16
2019-03-09T01:35:54.457Z,3.22
2019-03-09T01:38:23.048Z,3.36
2019-03-09T01:41:03.500Z,3.48
2019-03-09T01:43:31.395Z,3.49
2019-03-09T01:45:59.350Z,3.64
2019-03-09T01:48:27.641Z,3.67
2019-03-09T01:50:55.606Z,3.71
2019-03-09T01:53:24.216Z,3.73
2019-03-09T01:55:52.435Z,3.78
2019-03-09T01:58:21.130Z,3.73
2019-03-09T02:00:49.371Z,3.74
2019-03-09T02:03:17.849Z,3.65
2019-03-09T02:05:46.399Z,3.53
2019-03-09T02:08:14.308Z,3.46
2019-03-09T02:10:42.356Z,3.38
2019-03-09T02:13:10.570Z,3.34
2019-03-09T02:15:38.950Z,3.28
2019-03-09T02:18:06.936Z,3.22
2019-03-09T02:20:34.819Z,3.24
2019-03-09T02:23:03.192Z,3.20
2019-03-09T02:25:31.464Z,3.27
2019-03-09T02:27:59.685Z,3.32
2019-03-09T02:30:28.020Z,3.32
2019-03-09T02:32:56.209Z,3.24
2019-03-09T02:35:24.739Z,3.24
2019-03-09T02:41:09.776Z,3.34
2019-03-09T02:43:37.983Z,3.30
2019-03-09T02:46:06.579Z,3.31
2019-03-09T02:48:34.507Z,3.33
2019-03-09T02:51:03.025Z,3.37
2019-03-09T02:53:31.282Z,3.37
2019-03-09T02:55:59.806Z,3.33
2019-03-09T02:58:28.455Z,3.32
2019-03-09T03:01:16.196Z,3.30
2019-03-09T03:03:44.359Z,3.31
2019-03-09T03:06:12.670Z,3.32
2019-03-09T03:08:40.506Z,3.37
2019-03-09T03:11:09.055Z,3.42
2019-03-09T03:13:36.941Z,3.42
2019-03-09T03:16:04.755Z,3.43
2019-03-09T03:18:33.429Z,3.47
2019-03-09T03:21:01.699Z,3.45
2019-03-09T03:23:29.990Z,3.50
2019-03-09T03:25:58.589Z,3.61
2019-03-09T03:28:27.285Z,3.72
2019-03-09T03:30:55.900Z,3.83
2019-03-09T03:33:23.906Z,4.05
2019-03-09T03:35:52.328Z,4.20
2019-03-09T03:38:20.202Z,4.41
2019-03-09T03:40:48.820Z,4.55
2019-03-09T03:43:16.831Z,4.65
2019-03-09T03:45:44.740Z,4.75
2019-03-09T03:48:13.420Z,4.81
2019-03-09T03:50:41.723Z,5.00
2019-03-09T03:53:10.252Z,5.11
2019-03-09T03:55:38.601Z,5.09
2019-03-09T03:58:07.874Z,5.10
2019-03-09T04:00:36.515Z,5.21
2019-03-09T04:06:06.214Z,5.39
2019-03-09T04:08:34.735Z,5.41
2019-03-09T04:14:23.973Z,5.42
2019-03-09T04:16:52.265Z,5.39
2019-03-09T04:19:20.234Z,5.38
2019-03-09T04:21:48.798Z,5.39
2019-03-09T04:24:18.155Z,5.34
2019-03-09T04:26:46.796Z,5.44
2019-03-09T04:29:15.145Z,5.39
2019-03-09T04:31:43.225Z,5.44
2019-03-09T04:34:11.544Z,5.43
2019-03-09T04:36:39.862Z,5.45
2019-03-09T04:39:08.527Z,5.38
2019-03-09T04:41:37.135Z,5.33
2019-03-09T04:44:05.849Z,5.29
2019-03-09T04:46:34.191Z,5.29
2019-03-09T04:49:02.816Z,5.30
2019-03-09T04:51:30.741Z,5.30
2019-03-09T04:53:59.097Z,5.30
2019-03-09T04:56:27.751Z,5.29
2019-03-09T05:01:36.047Z,5.28
2019-03-09T05:04:52.274Z,5.29
2019-03-09T05:07:41.317Z,5.26
2019-03-09T05:10:20.961Z,5.30
2019-03-09T05:12:51.124Z,5.31
2019-03-09T05:15:19.093Z,5.28
2019-03-09T05:17:47.857Z,5.35
2019-03-09T05:20:16.559Z,5.33
2019-03-09T05:22:45.235Z,5.38
2019-03-09T05:25:13.069Z,5.41
2019-03-09T05:27:41.311Z,5.37
2019-03-09T05:33:12.309Z,5.39
2019-03-09T05:35:40.929Z,5.38
2019-03-09T05:38:08.868Z,5.37
2019-03-09T05:40:37.285Z,5.31
2019-03-09T05:43:05.571Z,5.27
2019-03-09T05:45:34.401Z,5.30
2019-03-09T05:48:03.147Z,5.33
2019-03-09T05:50:31.211Z,5.34
2019-03-09T05:53:19.432Z,5.37
2019-03-09T05:55:48.031Z,5.28
2019-03-09T05:58:15.906Z,5.26
2019-03-09T06:00:44.636Z,5.32
2019-03-09T06:03:13.489Z,5.34
2019-03-09T06:05:46.009Z,5.26
2019-03-09T06:08:14.976Z,5.24
2019-03-09T06:10:43.250Z,5.26
2019-03-09T06:13:31.484Z,5.21
2019-03-09T06:15:59.458Z,5.05
2019-03-09T06:18:28.115Z,4.84
2019-03-09T06:20:56.973Z,4.75
2019-03-09T06:23:25.328Z,4.64
2019-03-09T06:25:53.191Z,4.61
2019-03-09T06:28:21.431Z,4.55
2019-03-09T06:30:50.104Z,4.55
2019-03-09T06:33:37.475Z,4.57
2019-03-09T06:36:44.095Z,4.62
2019-03-09T06:39:33.306Z,4.62
2019-03-09T06:42:16.422Z,4.62
2019-03-09T06:44:45.123Z,4.64
2019-03-09T06:47:13.649Z,4.68
2019-03-09T06:49:42.276Z,4.68
2019-03-09T06:52:10.274Z,4.71
2019-03-09T06:54:39.059Z,4.68
2019-03-09T06:57:13.926Z,4.69
2019-03-09T06:59:43.134Z,4.74
2019-03-09T07:02:11.500Z,4.77
2019-03-09T07:04:39.590Z,4.77
2019-03-09T07:07:07.885Z,4.85
2019-03-09T07:09:35.726Z,4.90
2019-03-09T07:12:04.337Z,5.01
2019-03-09T07:15:11.044Z,5.01
2019-03-09T07:17:38.927Z,5.06
2019-03-09T07:20:12.727Z,5.11
2019-03-09T07:22:45.738Z,5.17
2019-03-09T07:25:14.329Z,5.25
2019-03-09T07:27:42.819Z,5.27
2019-03-09T07:30:30.219Z,5.39
2019-03-09T07:32:59.141Z,5.50
2019-03-09T07:35:27.899Z,5.60
2019-03-09T07:37:56.126Z,5.69
2019-03-09T07:40:24.890Z,5.72
2019-03-09T07:42:52.449Z,5.71
2019-03-09T07:45:20.742Z,5.68
2019-03-09T07:47:49.029Z,5.69
2019-03-09T07:50:17.244Z,5.77
2019-03-09T07:52:45.785Z,5.84
2019-03-09T07:55:13.926Z,5.90
2019-03-09T07:57:42.657Z,6.03
2019-03-09T08:00:13.050Z,6.15
2019-03-09T08:02:41.080Z,6.21
2019-03-09T08:05:49.331Z,6.40
2019-03-09T08:08:18.471Z,6.44
2019-03-09T08:10:46.948Z,6.42
2019-03-09T08:13:16.085Z,6.59
2019-03-09T08:15:44.027Z,6.69
2019-03-09T08:18:12.996Z,6.68
2019-03-09T08:20:41.730Z,6.76
2019-03-09T08:23:10.427Z,6.83
2019-03-09T08:25:38.979Z,6.88
2019-03-09T08:28:07.382Z,6.85
2019-03-09T08:30:36.007Z,6.99
2019-03-09T08:33:04.731Z,7.05
2019-03-09T08:35:33.391Z,7.16
2019-03-09T08:38:01.324Z,7.28
2019-03-09T08:40:29.207Z,7.42
2019-03-09T08:43:37.482Z,7.39
2019-03-09T08:46:05.507Z,7.56
2019-03-09T08:48:34.267Z,7.70
2019-03-09T08:51:02.861Z,7.79
2019-03-09T08:53:31.670Z,7.88
2019-03-09T08:59:01.455Z,7.88
2019-03-09T09:01:30.100Z,7.62
2019-03-09T09:03:58.898Z,7.70
2019-03-09T09:06:27.693Z,7.86
2019-03-09T09:08:56.371Z,7.77
2019-03-09T09:11:24.773Z,7.68
2019-03-09T09:13:53.107Z,7.75
2019-03-09T09:16:22.230Z,8.06
2019-03-09T09:18:50.561Z,8.10
2019-03-09T09:21:18.896Z,8.07
2019-03-09T09:23:47.136Z,8.24
2019-03-09T09:26:15.439Z,8.22
2019-03-09T09:28:43.748Z,8.29
2019-03-09T09:31:12.085Z,8.39
2019-03-09T09:33:40.817Z,8.60
2019-03-09T09:36:09.539Z,8.61
2019-03-09T09:38:38.270Z,8.57
2019-03-09T09:41:06.720Z,8.65
2019-03-09T09:43:35.346Z,8.60
2019-03-09T09:46:03.643Z,8.76
2019-03-09T09:48:32.320Z,8.85
2019-03-09T09:51:00.333Z,8.80
2019-03-09T09:53:28.502Z,8.95
2019-03-09T09:55:56.661Z,8.84
2019-03-09T09:58:25.156Z,9.01
2019-03-09T10:00:53.632Z,8.99
2019-03-09T10:03:22.315Z,8.84
2019-03-09T10:05:50.678Z,9.02
2019-03-09T10:08:19.223Z,8.99
2019-03-09T10:10:47.746Z,8.96
2019-03-09T10:13:16.474Z,9.03
2019-03-09T10:15:44.852Z,9.01
2019-03-09T10:18:13.015Z,9.12
2019-03-09T10:20:41.631Z,9.13
2019-03-09T10:23:09.778Z,9.12
2019-03-09T10:25:38.177Z,9.15
2019-03-09T10:28:06.169Z,9.19
2019-03-09T10:30:34.085Z,9.04
2019-03-09T10:33:02.583Z,8.96
2019-03-09T10:35:31.221Z,9.03
2019-03-09T10:37:59.814Z,9.02
2019-03-09T10:40:28.142Z,9.14
2019-03-09T10:42:56.350Z,9.21
2019-03-09T10:45:25.101Z,9.27
2019-03-09T10:47:53.557Z,9.22
2019-03-09T10:50:22.332Z,9.12
2019-03-09T10:52:51.225Z,8.89
2019-03-09T10:55:19.928Z,8.77
2019-03-09T10:57:48.222Z,8.76
2019-03-09T11:00:18.702Z,8.75
2019-03-09T11:02:46.538Z,8.73
2019-03-09T11:08:36.192Z,8.67
2019-03-09T11:11:05.083Z,8.70
2019-03-09T11:13:33.693Z,8.79
2019-03-09T11:16:01.850Z,8.94
2019-03-09T11:18:30.225Z,9.07
2019-03-09T11:20:58.858Z,9.17
2019-03-09T11:23:27.531Z,9.22
2019-03-09T11:25:55.907Z,9.06
2019-03-09T11:28:24.530Z,9.17
2019-03-09T11:31:34.214Z,9.11
2019-03-09T11:34:02.146Z,9.15
2019-03-09T11:36:30.074Z,9.17
2019-03-09T11:38:58.415Z,9.23
2019-03-09T11:41:26.977Z,9.18
2019-03-09T11:43:55.415Z,9.09
2019-03-09T11:46:24.014Z,9.09
2019-03-09T11:48:51.958Z,9.11
2019-03-09T11:51:20.386Z,9.32
2019-03-09T11:53:48.598Z,9.27
2019-03-09T11:56:17.226Z,9.36
2019-03-09T11:58:45.041Z,9.60
2019-03-09T12:01:13.694Z,9.79
2019-03-09T12:03:41.617Z,9.73
2019-03-09T12:06:09.664Z,9.86
2019-03-09T12:08:37.559Z,9.69
2019-03-09T12:11:06.198Z,9.70
2019-03-09T12:13:35.040Z,9.72
2019-03-09T12:16:03.710Z,9.73
2019-03-09T12:18:31.651Z,9.78
2019-03-09T12:20:59.548Z,9.84
2019-03-09T12:23:27.778Z,9.69
2019-03-09T12:25:56.317Z,9.62
2019-03-09T12:28:24.629Z,9.62
2019-03-09T12:30:52.892Z,9.64
2019-03-09T12:33:21.529Z,9.70
2019-03-09T12:35:57.427Z,9.68
2019-03-09T12:38:26.259Z,9.47
2019-03-09T12:40:55.118Z,9.40
2019-03-09T12:43:23.908Z,9.21
2019-03-09T12:45:52.788Z,9.14
2019-03-09T12:48:21.196Z,9.10
2019-03-09T12:50:49.141Z,9.15
2019-03-09T12:53:17.541Z,9.08
2019-03-09T12:55:45.834Z,9.01
2019-03-09T12:58:13.715Z,8.97
2019-03-09T13:00:41.962Z,8.97
2019-03-09T13:03:10.817Z,8.88
2019-03-09T13:05:39.622Z,8.86
2019-03-09T13:08:07.259Z,8.79
2019-03-09T13:10:36.037Z,8.77
2019-03-09T13:13:04.424Z,8.66
2019-03-09T13:15:32.657Z,8.65
2019-03-09T13:18:00.595Z,8.61
2019-03-09T13:20:29.301Z,8.57
2019-03-09T13:22:57.609Z,8.59
2019-03-09T13:25:26.887Z,8.56
2019-03-09T13:27:54.950Z,8.45
2019-03-09T13:30:23.342Z,8.38
2019-03-09T13:32:52.098Z,8.39
2019-03-09T13:35:20.498Z,8.38
2019-03-09T13:37:48.027Z,8.25
2019-03-09T13:40:16.932Z,8.06
2019-03-09T13:42:45.257Z,8.01
2019-03-09T13:45:13.949Z,8.02
2019-03-09T13:47:42.321Z,8.01
2019-03-09T13:50:11.177Z,8.02
2019-03-09T13:52:39.579Z,8.22
2019-03-09T13:55:07.984Z,8.35
2019-03-09T13:57:35.959Z,8.45
2019-03-09T14:00:44.225Z,8.54
2019-03-09T14:03:12.958Z,8.54
2019-03-09T14:05:40.808Z,8.36
2019-03-09T14:08:09.156Z,8.39
2019-03-09T14:10:37.066Z,8.34
2019-03-09T14:13:04.968Z,8.38
2019-03-09T14:15:33.738Z,8.38
2019-03-09T14:18:02.092Z,8.44
2019-03-09T14:20:30.778Z,8.40
2019-03-09T14:22:59.583Z,8.41
2019-03-09T14:25:27.516Z,8.33
2019-03-09T14:27:56.383Z,8.27
2019-03-09T14:30:24.880Z,8.17
2019-03-09T14:32:53.103Z,8.01
2019-03-09T14:35:21.432Z,7.81
2019-03-09T14:37:49.012Z,7.71
2019-03-09T14:40:16.982Z,7.61
2019-03-09T14:42:45.254Z,7.57
2019-03-09T14:45:14.697Z,7.54
2019-03-09T14:47:42.719Z,7.50
2019-03-09T14:53:12.569Z,7.55
2019-03-09T14:55:41.053Z,7.52
2019-03-09T14:58:09.320Z,7.38
2019-03-09T15:00:38.222Z,7.25
2019-03-09T15:03:06.210Z,7.13
2019-03-09T15:05:34.824Z,7.05
2019-03-09T15:08:03.483Z,7.08
2019-03-09T15:10:31.920Z,7.02
2019-03-09T15:13:00.254Z,7.06
2019-03-09T15:15:27.790Z,7.04
2019-03-09T15:17:55.948Z,7.02
2019-03-09T15:20:23.869Z,7.03
2019-03-09T15:22:52.140Z,7.07
2019-03-09T15:25:20.727Z,7.03
2019-03-09T15:27:49.320Z,7.05
2019-03-09T15:30:17.827Z,7.09
2019-03-09T15:32:46.552Z,7.10
2019-03-09T15:35:15.087Z,7.22
2019-03-09T15:37:43.652Z,7.29
2019-03-09T15:40:12.199Z,7.30
2019-03-09T15:42:41.034Z,7.24
2019-03-09T15:45:10.542Z,7.26
2019-03-09T15:47:39.207Z,7.26
2019-03-09T15:50:08.482Z,7.24
2019-03-09T15:52:37.052Z,7.33
2019-03-09T15:55:04.661Z,7.31
2019-03-09T15:57:32.636Z,7.30
2019-03-09T16:00:01.488Z,7.25
2019-03-09T16:02:30.299Z,7.28
2019-03-09T16:04:59.295Z,7.27
2019-03-09T16:07:27.732Z,7.30
2019-03-09T16:09:56.457Z,7.25
2019-03-09T16:12:24.863Z,7.21
2019-03-09T16:14:53.912Z,7.24
2019-03-09T16:17:22.273Z,7.26
2019-03-09T16:19:50.720Z,7.31
2019-03-09T16:22:19.297Z,7.28
2019-03-09T16:24:47.658Z,7.30
2019-03-09T16:27:15.989Z,7.28
2019-03-09T16:29:44.748Z,7.36
2019-03-09T16:32:13.556Z,7.35
2019-03-09T16:34:41.642Z,7.36
2019-03-09T16:37:09.506Z,7.36
2019-03-09T16:39:38.272Z,7.36
2019-03-09T16:42:06.578Z,7.43
2019-03-09T16:44:35.393Z,7.41
2019-03-09T16:47:03.568Z,7.42
2019-03-09T16:49:32.243Z,7.44
2019-03-09T16:51:59.907Z,7.44
2019-03-09T16:54:28.212Z,7.41
2019-03-09T16:56:56.491Z,7.37
2019-03-09T16:59:24.767Z,7.38
2019-03-09T17:01:53.044Z,7.33
2019-03-09T17:04:33.588Z,7.33
2019-03-09T17:07:02.230Z,7.37
2019-03-09T17:09:30.276Z,7.42
2019-03-09T17:11:58.306Z,7.42
2019-03-09T17:14:26.638Z,7.40
2019-03-09T17:16:54.619Z,7.42
2019-03-09T17:19:23.177Z,7.47
2019-03-09T17:21:52.040Z,7.47
2019-03-09T17:24:20.640Z,7.51
2019-03-09T17:26:49.343Z,7.47
2019-03-09T17:29:18.123Z,7.42
2019-03-09T17:31:46.961Z,7.46
2019-03-09T17:34:15.272Z,7.52
2019-03-09T17:36:43.634Z,7.47
2019-03-09T17:39:11.745Z,7.48
2019-03-09T17:41:40.480Z,7.53
2019-03-09T17:44:07.998Z,7.49
2019-03-09T17:46:36.344Z,7.50
2019-03-09T17:49:04.635Z,7.55
2019-03-09T17:51:32.803Z,7.58
2019-03-09T17:54:00.900Z,7.57
2019-03-09T17:56:28.979Z,7.51
2019-03-09T17:58:57.665Z,7.52
2019-03-09T18:01:25.942Z,7.53
2019-03-09T18:03:54.004Z,7.49
2019-03-09T18:06:22.387Z,7.58
2019-03-09T18:08:50.804Z,7.60
2019-03-09T18:11:19.158Z,7.55
2019-03-09T18:13:47.551Z,7.52
2019-03-09T18:16:15.860Z,7.51
2019-03-09T18:18:44.640Z,7.54
2019-03-09T18:21:12.947Z,7.58
2019-03-09T18:23:41.392Z,7.54
2019-03-09T18:26:10.168Z,7.60
2019-03-09T18:28:38.535Z,7.64
2019-03-09T18:31:07.270Z,7.66
2019-03-09T18:33:36.518Z,7.60
2019-03-09T18:36:04.544Z,7.63
2019-03-09T18:38:33.157Z,7.65
2019-03-09T18:41:01.357Z,7.71
2019-03-09T18:43:30.062Z,7.65
2019-03-09T18:45:58.368Z,7.67
2019-03-09T18:48:26.783Z,7.67
2019-03-09T18:50:55.474Z,7.79
2019-03-09T18:53:23.461Z,7.83
2019-03-09T18:55:58.937Z,7.79
2019-03-09T18:58:22.137Z,7.81
2019-03-09T19:00:50.437Z,7.83
2019-03-09T19:03:19.148Z,7.85
2019-03-09T19:05:47.642Z,7.87
2019-03-09T19:08:16.099Z,7.90
2019-03-09T19:10:44.115Z,7.93
2019-03-09T19:13:12.929Z,7.94
2019-03-09T19:15:40.967Z,7.90
2019-03-09T19:18:09.933Z,7.99
2019-03-09T19:20:38.638Z,7.92
2019-03-09T19:23:07.255Z,7.97
2019-03-09T19:25:35.538Z,7.95
2019-03-09T19:28:03.079Z,7.98
2019-03-09T19:30:31.724Z,7.94
2019-03-09T19:33:00.761Z,7.91
2019-03-09T19:35:39.557Z,7.90
2019-03-09T19:38:07.932Z,7.93
2019-03-09T19:40:35.843Z,7.88
2019-03-09T19:43:03.906Z,7.89
2019-03-09T19:45:32.629Z,7.86
2019-03-09T19:48:01.453Z,7.86
2019-03-09T19:50:29.702Z,7.80
2019-03-09T19:52:59.321Z,7.81
2019-03-09T19:55:27.787Z,7.86
2019-03-09T19:57:56.208Z,7.90
2019-03-09T20:00:24.923Z,7.88
2019-03-09T20:02:53.715Z,7.83
2019-03-09T20:05:22.045Z,7.79
2019-03-09T20:07:50.748Z,7.76
2019-03-09T20:10:19.129Z,7.69
2019-03-09T20:12:47.408Z,7.76
2019-03-09T20:15:15.778Z,7.75
2019-03-09T20:17:45.866Z,7.70
2019-03-09T20:20:21.147Z,7.68
2019-03-09T20:22:49.932Z,7.71
2019-03-09T20:25:30.417Z,7.65
2019-03-09T20:27:59.085Z,7.63
2019-03-09T20:30:27.066Z,7.64
2019-03-09T20:32:55.877Z,7.65
2019-03-09T20:35:24.222Z,7.67
2019-03-09T20:37:52.639Z,7.62
2019-03-09T20:40:21.413Z,7.53
2019-03-09T20:42:50.004Z,7.57
2019-03-09T20:45:18.759Z,7.55
2019-03-09T20:47:47.086Z,7.59
2019-03-09T20:50:15.171Z,7.51
2019-03-09T20:52:43.256Z,7.53
2019-03-09T20:55:51.928Z,7.49
2019-03-09T20:58:20.644Z,7.47
2019-03-09T21:00:48.607Z,7.59
2019-03-09T21:03:17.409Z,7.58
2019-03-09T21:05:45.636Z,7.64
2019-03-09T21:08:13.979Z,7.64
2019-03-09T21:10:42.796Z,7.54
2019-03-09T21:13:11.382Z,7.60
2019-03-09T21:15:39.413Z,7.53
2019-03-09T21:18:07.736Z,7.58
2019-03-09T21:20:36.523Z,7.61
2019-03-09T21:23:05.203Z,7.62
2019-03-09T21:25:33.122Z,7.61
2019-03-09T21:28:01.888Z,7.65
2019-03-09T21:30:30.578Z,7.70
2019-03-09T21:32:59.420Z,7.66
2019-03-09T21:35:27.729Z,7.68
2019-03-09T21:37:56.160Z,7.62
2019-03-09T21:40:23.743Z,7.65
2019-03-09T21:42:52.688Z,7.62
2019-03-09T21:45:21.458Z,7.69
2019-03-09T21:47:49.876Z,7.68
2019-03-09T21:50:18.593Z,7.68
2019-03-09T21:52:46.526Z,7.71
2019-03-09T21:55:14.510Z,7.70
2019-03-09T21:57:42.955Z,7.62
2019-03-09T22:00:12.498Z,7.63
2019-03-09T22:02:40.878Z,7.69
2019-03-09T22:05:11.075Z,7.75
2019-03-09T22:07:39.920Z,7.68
2019-03-09T22:10:08.557Z,7.74
2019-03-09T22:12:36.918Z,7.79
2019-03-09T22:15:05.444Z,7.75
2019-03-09T22:17:33.736Z,7.78
2019-03-09T22:20:02.519Z,7.77
2019-03-09T22:22:31.134Z,7.79
2019-03-09T22:24:59.505Z,7.78
2019-03-09T22:27:28.104Z,7.81
2019-03-09T22:29:56.898Z,7.81
2019-03-09T22:32:25.263Z,7.72
2019-03-09T22:34:53.224Z,7.83
2019-03-09T22:37:21.808Z,7.83
2019-03-09T22:39:50.120Z,7.84
2019-03-09T22:42:17.711Z,7.92
2019-03-09T22:44:46.089Z,7.94
2019-03-09T22:47:14.835Z,7.99
2019-03-09T22:49:42.769Z,7.92
2019-03-09T22:52:10.733Z,7.97
2019-03-09T22:54:38.584Z,7.84
2019-03-09T22:57:06.870Z,7.88
2019-03-09T22:59:35.603Z,7.91
2019-03-09T23:04:44.581Z,8.00
2019-03-09T23:07:12.853Z,8.09
2019-03-09T23:09:41.065Z,8.08
2019-03-09T23:12:09.046Z,8.11
2019-03-09T23:14:37.729Z,8.07
2019-03-09T23:17:06.542Z,8.06
2019-03-09T23:19:34.812Z,8.08
2019-03-09T23:22:03.366Z,8.12
2019-03-09T23:24:31.674Z,8.12
2019-03-09T23:30:01.025Z,8.04
2019-03-09T23:32:28.967Z,8.03
2019-03-09T23:34:57.771Z,8.00
2019-03-09T23:37:25.024Z,7.97
2019-03-09T23:39:53.403Z,7.92
2019-03-09T23:42:21.680Z,7.90
2019-03-09T23:44:50.544Z,7.96
2019-03-09T23:47:18.458Z,7.99
2019-03-09T23:49:46.360Z,8.14
2019-03-09T23:52:14.822Z,8.22
2019-03-09T23:54:43.426Z,8.24
2019-03-09T23:57:11.299Z,8.19
2019-03-09T23:59:39.611Z,8.20
